Time;durP1;ratioP1;P1;durP2;ratioP2;P2;SDS_P1;SDS_P2;PMS_P1;PMS_P2;Temp;Humidity;BMP_temperature;BMP_pressure;BME280_temperature;BME280_humidity;BME280_pressure;Samples;Min_cycle;Max_cycle;Signal;HPM_P1;HPM_P2
2023/04/25 00:01:05;;;;;;;6.23;4.33;;;8.70;99.90;;;-141.84;64.20;19738.66;5015873;28;20199;-55
2023/04/25 00:03:33;;;;;;;7.83;4.70;;;8.70;99.90;;;-141.84;64.10;19769.13;5015844;28;20206;-56
2023/04/25 00:06:03;;;;;;;5.20;4.23;;;8.70;99.90;;;-141.84;64.23;19754.91;5015898;28;20207;-55
2023/04/25 00:08:31;;;;;;;5.93;4.50;;;8.80;99.90;;;-141.84;63.46;19769.13;5015756;28;20577;-56
2023/04/25 00:11:00;;;;;;;5.27;4.77;;;8.90;99.90;;;-141.84;64.09;19756.94;5015876;28;20226;-58
2023/04/25 00:13:29;;;;;;;7.63;4.10;;;8.90;99.90;;;-141.84;64.51;19763.03;5032887;28;20202;-55
2023/04/25 00:15:57;;;;;;;4.60;4.20;;;8.90;99.90;;;-141.84;64.96;19714.25;5035419;28;20260;-57
2023/04/25 00:18:28;;;;;;;5.77;4.83;;;8.90;99.90;;;-141.84;65.00;19752.88;5035150;28;20236;-55
2023/04/25 00:20:57;;;;;;;5.70;5.00;;;8.90;99.90;;;-141.84;64.67;19720.34;5035272;28;20297;-57
2023/04/25 00:23:26;;;;;;;6.40;5.23;;;8.90;99.90;;;-141.84;64.87;19750.84;5035257;28;20571;-55
2023/04/25 00:25:54;;;;;;;6.13;4.67;;;8.90;99.90;;;-141.84;65.21;19718.31;5034998;28;20237;-55
2023/04/25 00:28:22;;;;;;;6.80;4.97;;;8.80;99.90;;;-141.84;65.74;19730.50;5034648;28;20210;-56
2023/04/25 00:30:51;;;;;;;5.17;4.67;;;8.80;99.90;;;-141.84;65.95;19693.94;5034961;28;20226;-55
2023/04/25 00:33:19;;;;;;;5.87;4.67;;;8.70;99.90;;;-141.84;66.72;19689.88;5035093;28;20209;-54
2023/04/25 00:35:47;;;;;;;4.97;4.40;;;8.60;99.90;;;-141.84;66.34;19728.47;5034972;28;20206;-56
2023/04/25 00:38:15;;;;;;;7.13;5.07;;;8.50;99.90;;;-141.84;66.79;19695.97;5034625;28;20205;-55
2023/04/25 00:40:45;;;;;;;9.00;4.70;;;8.40;99.90;;;-141.84;67.21;19643.13;5034820;28;20205;-54
2023/04/25 00:43:13;;;;;;;7.57;4.83;;;8.30;99.90;;;-141.84;67.94;19659.38;5034506;28;20557;-56
2023/04/25 00:45:41;;;;;;;8.40;4.90;;;8.20;99.90;;;-141.84;67.54;19653.28;5034890;28;20322;-56
2023/04/25 00:48:09;;;;;;;6.00;5.23;;;8.20;99.90;;;-141.84;67.95;19651.25;5034801;28;20206;-54
2023/04/25 00:50:38;;;;;;;6.20;4.80;;;8.10;99.90;;;-141.84;67.78;19667.50;5034627;28;20225;-54
2023/04/25 00:53:07;;;;;;;6.20;4.80;;;8.10;99.90;;;-141.84;68.27;19645.16;5034429;28;20575;-55
2023/04/25 00:55:36;;;;;;;6.20;5.30;;;8.00;99.90;;;-141.84;68.96;19620.78;5034969;28;20213;-55
2023/04/25 00:58:05;;;;;;;6.10;5.23;;;7.90;99.90;;;-141.84;68.86;19618.75;5034291;28;20202;-52
2023/04/25 01:00:34;;;;;;;6.33;5.20;;;7.90;99.90;;;-141.84;69.11;19616.72;5034603;28;20210;-57
2023/04/25 01:03:03;;;;;;;6.43;5.40;;;7.90;99.90;;;-141.84;68.75;19616.72;5034497;28;20292;-53
2023/04/25 01:05:32;;;;;;;7.27;5.77;;;7.80;99.90;;;-141.84;69.12;19608.56;5034664;28;20206;-54
2023/04/25 01:08:01;;;;;;;6.93;5.53;;;7.80;99.90;;;-141.84;69.90;19592.31;5033804;28;20202;-56
2023/04/25 01:10:29;;;;;;;8.37;5.83;;;7.70;99.90;;;-141.84;70.05;19592.31;5034428;28;20220;-53
2023/04/25 01:12:58;;;;;;;7.97;5.53;;;7.60;99.90;;;-141.84;70.62;19561.84;5033733;28;20721;-54
2023/04/25 01:15:28;;;;;;;6.40;5.30;;;7.60;99.90;;;-141.84;70.41;19561.84;5034302;28;20693;-55
2023/04/25 01:18:00;;;;;;;8.03;5.60;;;7.50;99.90;;;-141.84;70.20;19580.13;5034040;28;20256;-53
2023/04/25 01:20:32;;;;;;;6.30;5.57;;;7.50;99.90;;;-141.84;69.83;19574.03;5034298;28;20195;-54
2023/04/25 01:23:03;;;;;;;6.80;5.50;;;7.50;99.90;;;-141.84;70.27;19596.38;5033943;28;20182;-57
2023/04/25 01:25:32;;;;;;;8.27;5.87;;;7.50;99.90;;;-141.84;69.15;19580.13;5033946;28;20285;-58
2023/04/25 01:28:00;;;;;;;7.87;5.63;;;7.50;99.90;;;-141.84;69.53;19563.88;5033924;28;20197;-55
2023/04/25 01:30:29;;;;;;;7.07;6.37;;;7.40;99.90;;;-141.84;70.41;19567.94;5033766;28;20255;-57
2023/04/25 01:32:58;;;;;;;7.00;5.97;;;7.40;99.90;;;-141.84;70.29;19557.78;5033561;28;20226;-53
2023/04/25 01:35:26;;;;;;;7.00;6.00;;;7.30;99.90;;;-141.84;69.81;19563.88;5033626;28;20713;-56
2023/04/25 01:37:55;;;;;;;6.90;5.70;;;7.30;99.90;;;-141.84;70.50;19547.59;5033846;28;20206;-54
2023/04/25 01:40:25;;;;;;;6.40;5.80;;;7.20;99.90;;;-141.84;70.41;19535.41;5033507;28;20670;-54
2023/04/25 01:42:54;;;;;;;9.47;5.90;;;7.20;99.90;;;-141.84;70.75;19539.47;5033166;28;20202;-54
2023/04/25 01:45:23;;;;;;;8.70;6.03;;;7.20;99.90;;;-141.84;69.99;19555.75;5033687;28;20600;-53
2023/04/25 01:47:51;;;;;;;7.93;5.53;;;7.10;99.90;;;-141.84;70.37;19557.78;5033866;28;20209;-53
2023/04/25 01:50:20;;;;;;;7.00;5.70;;;7.10;99.90;;;-141.84;70.15;19559.81;5033658;28;20210;-54
2023/04/25 01:52:49;;;;;;;8.33;5.63;;;7.10;99.90;;;-141.84;70.71;19549.63;5032204;28;20233;-54
2023/04/25 01:55:17;;;;;;;6.13;5.53;;;7.00;99.90;;;-141.84;70.50;19523.22;5033308;28;20202;-53
2023/04/25 01:57:46;;;;;;;6.77;6.07;;;7.00;99.90;;;-141.84;69.89;19527.28;5033123;28;20206;-54
2023/04/25 02:00:15;;;;;;;7.47;5.47;;;7.00;99.90;;;-141.84;69.97;19525.25;5033405;28;20217;-53
2023/04/25 02:02:43;;;;;;;7.57;5.50;;;6.90;99.90;;;-141.84;69.94;19519.16;5033189;28;20201;-56
2023/04/25 02:05:12;;;;;;;6.67;5.20;;;6.90;99.90;;;-141.84;69.94;19537.44;5033200;28;20198;-55
2023/04/25 02:07:40;;;;;;;6.90;5.40;;;6.90;99.90;;;-141.84;70.11;19509.00;5033356;28;20206;-71
2023/04/25 02:10:09;;;;;;;7.07;5.77;;;6.90;99.90;;;-141.84;70.18;19533.38;5033205;28;20209;-70
2023/04/25 02:12:37;;;;;;;6.63;5.10;;;6.90;99.90;;;-141.84;70.29;19529.31;5032863;28;20226;-69
2023/04/25 02:15:08;;;;;;;7.67;6.00;;;6.80;99.90;;;-141.84;70.97;19488.69;5033009;28;20206;-71
2023/04/25 02:17:37;;;;;;;7.43;5.53;;;6.80;99.90;;;-141.84;71.25;19521.19;5032683;28;20225;-70
2023/04/25 02:20:07;;;;;;;8.73;5.87;;;6.70;99.90;;;-141.84;70.80;19506.97;5032722;28;20230;-70
2023/04/25 02:22:35;;;;;;;9.10;6.40;;;6.70;99.90;;;-141.84;70.27;19527.28;5033257;28;20198;-71
2023/04/25 02:25:04;;;;;;;7.80;6.53;;;6.70;99.90;;;-141.84;70.76;19517.13;5032988;28;20209;-71
2023/04/25 02:27:33;;;;;;;8.17;6.17;;;6.70;99.90;;;-141.84;70.32;19490.72;5032379;28;20233;-70
2023/04/25 02:30:01;;;;;;;9.50;6.73;;;6.70;99.90;;;-141.84;70.83;19456.16;5032961;28;20206;-71
2023/04/25 02:32:30;;;;;;;8.97;6.10;;;6.70;99.90;;;-141.84;70.81;19462.25;5032249;28;20221;-70
2023/04/25 02:35:03;;;;;;;9.43;6.47;;;6.60;99.90;;;-141.84;70.26;19523.22;5032226;28;20315;-71
2023/04/25 02:37:31;;;;;;;7.53;6.27;;;6.60;99.90;;;-141.84;71.35;19496.81;5032950;28;20189;-73
2023/04/25 02:40:00;;;;;;;7.53;6.10;;;6.60;99.90;;;-141.84;72.15;19466.31;5032279;28;20198;-71
2023/04/25 02:42:28;;;;;;;7.60;6.80;;;6.50;99.90;;;-141.84;71.68;19468.34;5032128;28;20209;-70
2023/04/25 02:44:56;;;;;;;8.67;6.10;;;6.50;99.90;;;-141.84;72.21;19490.72;5032705;28;20206;-69
2023/04/25 02:47:25;;;;;;;7.57;6.73;;;6.50;99.90;;;-141.84;72.31;19441.94;5033211;28;20202;-70
2023/04/25 02:49:54;;;;;;;8.63;6.70;;;6.40;99.90;;;-141.84;72.36;19448.03;5032566;28;20205;-71
2023/04/25 02:52:23;;;;;;;9.37;6.70;;;6.40;99.90;;;-141.84;72.14;19441.94;5032628;28;20238;-70
2023/04/25 02:54:51;;;;;;;9.10;7.07;;;6.30;99.90;;;-141.84;72.31;19443.97;5032722;28;20204;-70
2023/04/25 02:57:19;;;;;;;8.97;6.60;;;6.30;99.90;;;-141.84;72.11;19452.09;5031870;28;20700;-70
2023/04/25 02:59:47;;;;;;;9.83;6.80;;;6.30;99.90;;;-141.84;71.98;19429.75;5032429;28;20214;-71
2023/04/25 03:02:15;;;;;;;7.33;6.53;;;6.30;99.90;;;-141.84;72.28;19472.41;5032250;28;20212;-71
2023/04/25 03:04:43;;;;;;;9.27;6.70;;;6.30;99.90;;;-141.84;71.95;19450.06;5032520;28;20216;-70
2023/04/25 03:07:13;;;;;;;8.90;6.53;;;6.30;99.90;;;-141.84;71.59;19448.03;5032750;28;20213;-70
2023/04/25 03:09:41;;;;;;;7.53;6.00;;;6.30;99.90;;;-141.84;71.43;19464.28;5032364;28;20213;-70
2023/04/25 03:12:10;;;;;;;8.53;6.27;;;6.30;99.90;;;-141.84;71.59;19446.00;5031963;28;20235;-72
2023/04/25 03:14:38;;;;;;;8.00;6.30;;;6.20;99.90;;;-141.84;71.22;19456.16;5031972;28;20206;-70
2023/04/25 03:17:06;;;;;;;10.40;6.60;;;6.20;99.90;;;-141.84;71.40;19466.31;5031831;28;20205;-71
2023/04/25 03:19:34;;;;;;;7.67;5.87;;;6.20;99.90;;;-141.84;71.08;19446.00;5032258;28;20212;-71
2023/04/25 03:22:02;;;;;;;10.07;6.53;;;6.30;99.90;;;-141.84;71.41;19443.97;5032116;28;20583;-71
2023/04/25 03:24:31;;;;;;;9.83;7.43;;;6.20;99.90;;;-141.84;71.33;19476.47;5032033;28;20204;-70
2023/04/25 03:27:00;;;;;;;9.00;6.50;;;6.20;99.90;;;-141.84;71.78;19452.09;5031384;28;20787;-71
2023/04/25 03:29:28;;;;;;;8.90;6.77;;;6.20;99.90;;;-141.84;72.16;19415.50;5031750;28;20212;-71
2023/04/25 03:31:56;;;;;;;9.40;6.30;;;6.10;99.90;;;-141.84;71.99;19466.31;5031851;28;20205;-71
2023/04/25 03:34:25;;;;;;;8.93;6.27;;;6.10;99.90;;;-141.84;72.25;19429.75;5031974;28;20206;-71
2023/04/25 03:36:53;;;;;;;9.33;6.10;;;6.10;99.90;;;-141.84;72.29;19425.69;5031653;28;20579;-71
2023/04/25 03:39:22;;;;;;;8.60;5.93;;;6.10;99.90;;;-141.84;71.57;19468.34;5032151;28;20213;-71
2023/04/25 03:41:51;;;;;;;9.93;6.53;;;6.10;99.90;;;-141.84;71.76;19439.91;5031056;28;20213;-71
2023/04/25 03:44:20;;;;;;;10.00;7.37;;;6.10;99.90;;;-141.84;71.80;19419.59;5031694;28;20595;-70
2023/04/25 03:46:48;;;;;;;10.93;7.60;;;6.10;99.90;;;-141.84;71.97;19472.41;5031634;28;20212;-70
2023/04/25 03:49:17;;;;;;;8.60;6.70;;;6.10;99.90;;;-141.84;71.27;19431.78;5031606;28;20209;-72
2023/04/25 03:51:46;;;;;;;8.10;6.10;;;6.10;99.90;;;-141.84;72.04;19423.66;5031134;28;20561;-71
2023/04/25 03:54:14;;;;;;;10.43;6.90;;;6.10;99.90;;;-141.84;71.79;19429.75;5031577;28;20222;-70
2023/04/25 03:56:42;;;;;;;9.20;6.63;;;6.00;99.90;;;-141.84;72.15;19439.91;5031506;28;20209;-72
2023/04/25 03:59:12;;;;;;;11.23;6.57;;;6.00;99.90;;;-141.84;72.27;19407.38;5031342;28;20205;-70
2023/04/25 04:01:40;;;;;;;8.57;6.77;;;6.00;99.90;;;-141.84;72.22;19411.44;5031576;28;20212;-71
2023/04/25 04:04:08;;;;;;;10.60;6.50;;;6.00;99.90;;;-141.84;73.11;19405.34;5031635;28;20266;-70
2023/04/25 04:06:37;;;;;;;10.03;7.20;;;5.90;99.90;;;-141.84;73.60;19425.69;5031589;28;20288;-70
2023/04/25 04:09:09;;;;;;;10.37;7.27;;;5.90;99.90;;;-141.84;73.63;19405.34;5031213;28;20241;-70
2023/04/25 04:11:38;;;;;;;8.70;6.50;;;5.90;99.90;;;-141.84;73.31;19405.34;5031409;28;20192;-71
2023/04/25 04:14:06;;;;;;;9.07;6.43;;;5.90;99.90;;;-141.84;72.96;19409.41;5031115;28;20236;-70
2023/04/25 04:16:36;;;;;;;9.63;6.93;;;6.00;99.90;;;-141.84;72.26;19433.81;5031335;28;20201;-71
2023/04/25 04:19:04;;;;;;;10.80;6.50;;;6.00;99.90;;;-141.84;72.21;19411.44;5031548;28;20205;-70
2023/04/25 04:21:33;;;;;;;7.73;6.10;;;6.10;99.90;;;-141.84;71.96;19448.03;5031555;28;20210;-71
2023/04/25 04:24:01;;;;;;;8.10;6.20;;;6.10;99.90;;;-141.84;71.67;19409.41;5031237;28;20208;-71
2023/04/25 04:26:31;;;;;;;11.17;6.07;;;6.10;99.90;;;-141.84;71.80;19403.31;5031011;28;20276;-71
2023/04/25 04:29:00;;;;;;;10.63;5.80;;;6.20;99.90;;;-141.84;71.57;19441.94;5031065;28;20729;-70
2023/04/25 04:31:28;;;;;;;7.47;5.47;;;6.20;99.90;;;-141.84;71.81;19423.66;5030948;28;20685;-71
2023/04/25 04:33:57;;;;;;;8.40;6.03;;;6.20;99.90;;;-141.84;71.56;19456.16;5031213;28;20229;-70
2023/04/25 04:36:26;;;;;;;8.23;5.97;;;6.30;99.90;;;-141.84;70.27;19448.03;5031083;28;20673;-71
2023/04/25 04:38:56;;;;;;;8.63;5.20;;;6.30;99.90;;;-141.84;70.91;19456.16;5031509;28;20202;-71
2023/04/25 04:41:24;;;;;;;8.87;5.73;;;6.40;99.90;;;-141.84;70.09;19482.56;5032453;28;20198;-71
2023/04/25 04:43:53;;;;;;;9.03;5.90;;;6.40;99.90;;;-141.84;69.27;19468.34;5035663;28;20206;-71
2023/04/25 04:46:21;;;;;;;9.47;5.87;;;6.50;99.90;;;-141.84;69.05;19488.69;5035398;28;20210;-70
2023/04/25 04:48:49;;;;;;;7.07;5.23;;;6.50;99.90;;;-141.84;68.54;19478.50;5034985;28;20209;-71
2023/04/25 04:51:19;;;;;;;9.17;5.87;;;6.60;99.90;;;-141.84;68.85;19492.75;5035772;28;20209;-71
2023/04/25 04:53:47;;;;;;;7.87;5.40;;;6.70;99.90;;;-141.84;67.90;19509.00;5036429;28;20698;-71
2023/04/25 04:56:16;;;;;;;6.37;5.17;;;6.70;99.90;;;-141.84;68.05;19517.13;5036307;28;20193;-72
2023/04/25 04:58:44;;;;;;;9.77;5.57;;;6.80;99.90;;;-141.84;66.75;19502.91;5034760;28;20295;-72
2023/04/25 05:01:13;;;;;;;8.77;5.47;;;7.00;99.90;;;-141.84;67.11;19519.16;5034595;28;20208;-71
2023/04/25 05:03:41;;;;;;;8.50;6.60;;;7.00;99.90;;;-141.84;66.04;19529.31;5034974;28;20206;-69
2023/04/25 05:06:09;;;;;;;6.90;5.40;;;7.10;99.90;;;-141.84;65.27;19561.84;5035311;28;20317;-71
2023/04/25 05:08:39;;;;;;;11.90;6.73;;;7.20;99.90;;;-141.84;65.24;19616.72;5035225;28;20285;-72
2023/04/25 05:11:07;;;;;;;11.00;6.60;;;7.40;99.90;;;-141.84;63.85;19612.63;5035188;28;20206;-71
2023/04/25 05:13:35;;;;;;;7.30;5.90;;;7.50;99.90;;;-141.84;63.00;19649.22;5034527;28;20236;-72
2023/04/25 05:16:04;;;;;;;7.70;6.60;;;7.70;99.90;;;-141.84;62.60;19659.38;5034645;28;20209;-72
2023/04/25 05:18:32;;;;;;;8.70;6.23;;;7.90;99.90;;;-141.84;62.17;19653.28;5034601;28;20206;-74
2023/04/25 05:21:01;;;;;;;15.03;9.50;;;8.00;99.90;;;-141.84;62.20;19671.56;5034903;28;20202;-72
2023/04/25 05:23:30;;;;;;;11.37;6.87;;;8.30;99.90;;;-141.84;61.38;19706.13;5034932;28;20206;-70
2023/04/25 05:26:02;;;;;;;8.40;5.80;;;8.40;99.90;;;-141.84;61.30;19700.03;5034672;28;20249;-72
2023/04/25 05:28:30;;;;;;;9.17;5.77;;;8.60;99.90;;;-141.84;60.49;19740.69;5034208;28;20206;-71
2023/04/25 05:30:58;;;;;;;7.70;6.03;;;8.70;99.90;;;-141.84;60.63;19708.16;5034748;28;20202;-71
2023/04/25 05:33:27;;;;;;;8.40;5.83;;;8.80;99.90;;;-141.84;59.46;19726.44;5034567;28;20253;-73
2023/04/25 05:35:55;;;;;;;7.37;5.43;;;8.90;99.90;;;-141.84;59.34;19752.88;5034249;28;20217;-73
2023/04/25 05:38:23;;;;;;;8.00;5.87;;;8.90;99.90;;;-141.84;59.71;19756.94;5034232;28;20202;-73
2023/04/25 05:40:53;;;;;;;12.30;6.63;;;9.10;99.90;;;-141.84;59.36;19742.72;5035199;28;20218;-75
2023/04/25 05:43:23;;;;;;;8.50;6.20;;;9.10;99.90;;;-141.84;59.61;19732.53;5035115;28;20202;-73
2023/04/25 05:45:51;;;;;;;12.37;6.03;;;9.10;99.90;;;-141.84;59.11;19761.00;5035353;28;20198;-72
2023/04/25 05:48:19;;;;;;;9.97;6.23;;;9.10;99.90;;;-141.84;59.13;19789.44;5034485;28;20252;-74
2023/04/25 05:50:47;;;;;;;9.07;6.40;;;9.20;99.90;;;-141.84;58.19;19828.06;5035097;28;20206;-73
2023/04/25 05:53:15;;;;;;;9.57;6.20;;;9.30;99.90;;;-141.84;58.41;19826.03;5034275;28;20781;-72
2023/04/25 05:55:44;;;;;;;11.10;6.17;;;9.40;99.90;;;-141.84;57.88;19828.06;5035098;28;20202;-73
2023/04/25 05:58:12;;;;;;;9.87;5.93;;;9.50;99.90;;;-141.84;57.80;19834.16;5035547;28;20708;-73
2023/04/25 06:00:42;;;;;;;9.17;6.30;;;9.60;99.90;;;-141.84;57.46;19834.16;5034175;28;20213;-72
2023/04/25 06:03:10;;;;;;;9.00;6.20;;;9.60;99.90;;;-141.84;57.15;19864.66;5034074;28;20216;-73
2023/04/25 06:05:39;;;;;;;8.30;6.07;;;9.70;99.90;;;-141.84;57.21;19840.25;5034155;28;20293;-72
2023/04/25 06:08:07;;;;;;;10.70;6.03;;;9.80;99.90;;;-141.84;56.96;19838.22;5034316;28;20208;-71
2023/04/25 06:10:35;;;;;;;8.47;5.90;;;9.70;99.90;;;-141.84;57.62;19830.09;5033372;28;20682;-73
2023/04/25 06:13:04;;;;;;;10.13;6.30;;;9.80;99.90;;;-141.84;57.11;19856.53;5020115;28;20292;-73
2023/04/25 06:15:33;;;;;;;7.17;5.87;;;9.90;99.90;;;-141.84;56.99;19887.00;5014487;28;20219;-74
2023/04/25 06:18:02;;;;;;;10.67;6.53;;;9.90;99.90;;;-141.84;56.66;19880.91;5027129;28;20202;-71
2023/04/25 06:20:31;;;;;;;10.57;6.53;;;9.90;99.90;;;-141.84;55.74;19927.66;5033965;28;20202;-73
2023/04/25 06:22:59;;;;;;;6.63;5.37;;;10.10;99.90;;;-141.84;55.15;19915.47;5034444;28;20594;-74
2023/04/25 06:25:27;;;;;;;7.77;5.80;;;10.20;99.90;;;-141.84;54.77;19947.97;5033351;28;20202;-74
2023/04/25 06:27:55;;;;;;;10.17;5.10;;;10.30;99.90;;;-141.84;54.59;19917.50;5033328;28;20194;-74
2023/04/25 06:30:25;;;;;;;9.00;5.90;;;10.40;99.90;;;-141.84;54.43;19941.88;5033635;28;20205;-75
2023/04/25 06:32:54;;;;;;;10.20;5.70;;;10.40;99.90;;;-141.84;54.24;19950.00;5033389;28;20232;-74
2023/04/25 06:35:23;;;;;;;8.20;5.77;;;10.40;99.90;;;-141.84;54.62;19935.78;5032540;28;20253;-72
2023/04/25 06:37:51;;;;;;;8.03;5.63;;;10.30;99.90;;;-141.84;54.81;19941.88;5033035;28;20212;-73
2023/04/25 06:40:19;;;;;;;6.77;4.93;;;10.30;99.90;;;-141.84;55.63;19927.66;5033204;28;20202;-71
2023/04/25 06:42:48;;;;;;;7.87;5.50;;;10.30;99.90;;;-141.84;54.90;19939.84;5032672;28;20229;-74
2023/04/25 06:45:16;;;;;;;7.17;5.27;;;10.30;99.90;;;-141.84;55.27;19982.53;5032809;28;20199;-72
2023/04/25 06:47:44;;;;;;;7.40;4.80;;;10.30;99.90;;;-141.84;54.17;20027.25;5032420;28;20302;-73
2023/04/25 06:50:13;;;;;;;7.77;5.13;;;10.40;99.90;;;-141.84;54.29;19996.75;5032521;28;20554;-73
2023/04/25 06:52:42;;;;;;;8.83;5.53;;;10.40;99.90;;;-141.84;54.37;19986.59;5032584;28;20341;-72
2023/04/25 06:55:10;;;;;;;8.50;5.57;;;10.60;99.90;;;-141.84;54.39;19978.47;5032802;28;20225;-73
2023/04/25 06:57:39;;;;;;;7.37;5.47;;;10.50;99.90;;;-141.84;54.65;20053.66;5032545;28;20204;-73
2023/04/25 07:00:09;;;;;;;6.13;5.07;;;10.60;99.90;;;-141.84;54.53;20008.94;5032165;28;20209;-73
2023/04/25 07:02:37;;;;;;;8.97;5.50;;;10.60;99.90;;;-141.84;54.23;20037.41;5032458;28;20269;-72
2023/04/25 07:05:06;;;;;;;6.87;5.00;;;10.70;99.90;;;-141.84;54.39;20029.28;5031562;28;20233;-72
2023/04/25 07:07:34;;;;;;;6.43;5.37;;;10.70;99.90;;;-141.84;54.37;19990.66;5032298;28;20201;-72
2023/04/25 07:10:05;;;;;;;8.23;5.30;;;10.60;99.90;;;-141.84;54.91;19960.16;5032130;28;20202;-73
2023/04/25 07:12:33;;;;;;;11.53;5.80;;;10.50;99.90;;;-141.84;55.80;19956.09;5031923;28;20202;-74
2023/04/25 07:15:05;;;;;;;9.33;5.30;;;10.50;99.90;;;-141.84;56.07;19972.38;5031996;28;20245;-73
2023/04/25 07:17:34;;;;;;;8.27;5.40;;;10.40;99.90;;;-141.84;55.58;19986.59;5032254;28;20201;-73
2023/04/25 07:20:03;;;;;;;6.67;5.10;;;10.50;99.90;;;-141.84;55.75;19964.25;5032136;28;20202;-73
2023/04/25 07:22:34;;;;;;;8.43;4.90;;;10.40;99.90;;;-141.84;55.33;19988.63;5032361;28;20183;-72
2023/04/25 07:25:04;;;;;;;9.40;5.50;;;10.50;99.90;;;-141.84;55.20;19978.47;5032108;28;20198;-72
2023/04/25 07:27:32;;;;;;;5.83;4.83;;;10.40;99.90;;;-141.84;55.24;19990.66;5031565;28;20265;-72
2023/04/25 07:30:00;;;;;;;9.50;5.57;;;10.50;99.90;;;-141.84;55.62;19962.19;5032162;28;20206;-73
2023/04/25 07:32:28;;;;;;;7.37;5.30;;;10.40;99.90;;;-141.84;55.45;19958.13;5032071;28;20202;-72
2023/04/25 07:34:56;;;;;;;7.30;5.53;;;10.30;99.90;;;-141.84;55.26;19992.69;5031817;28;20225;-74
2023/04/25 07:37:25;;;;;;;6.17;5.20;;;10.30;99.90;;;-141.84;55.67;19956.09;5031982;28;20563;-72
2023/04/25 07:39:53;;;;;;;7.60;5.67;;;10.40;99.90;;;-141.84;55.92;19945.94;5032287;28;20202;-73
2023/04/25 07:42:22;;;;;;;13.00;6.13;;;10.20;99.90;;;-141.84;55.76;19947.97;5031801;28;20217;-74
2023/04/25 07:44:51;;;;;;;8.20;5.40;;;10.20;99.90;;;-141.84;56.35;19911.41;5032013;28;20202;-73
2023/04/25 07:47:20;;;;;;;9.27;6.27;;;10.00;99.90;;;-141.84;56.85;19899.19;5032242;28;20256;-73
2023/04/25 07:49:48;;;;;;;7.03;5.90;;;9.90;99.90;;;-141.84;57.44;19880.91;5032077;28;20288;-73
2023/04/25 07:52:16;;;;;;;7.93;5.77;;;9.70;99.90;;;-141.84;57.75;19870.75;5032196;28;20205;-72
2023/04/25 07:54:45;;;;;;;8.97;5.83;;;9.70;99.90;;;-141.84;58.14;19858.56;5031688;28;20233;-72
2023/04/25 07:57:13;;;;;;;7.63;5.60;;;9.60;99.90;;;-141.84;58.75;19811.81;5031736;28;20210;-72
2023/04/25 07:59:43;;;;;;;6.70;5.17;;;9.50;99.90;;;-141.84;58.17;19850.41;5031921;28;20233;-74
2023/04/25 08:02:11;;;;;;;7.37;4.90;;;9.50;99.90;;;-141.84;58.35;19815.88;5031510;28;20739;-73
2023/04/25 08:04:40;;;;;;;7.17;4.30;;;9.50;99.90;;;-141.84;57.92;19864.66;5031798;28;20252;-73
2023/04/25 08:07:09;;;;;;;8.37;3.70;;;9.60;99.90;;;-141.84;56.54;19907.31;5031316;28;20669;-72
2023/04/25 08:09:37;;;;;;;5.17;3.37;;;9.70;99.90;;;-141.84;55.63;19901.22;5031734;28;20206;-73
2023/04/25 08:12:06;;;;;;;6.97;3.03;;;9.80;99.90;;;-141.84;53.51;19919.53;5031493;28;20678;-73
2023/04/25 08:14:36;;;;;;;5.97;2.50;;;10.00;99.90;;;-141.84;52.73;19972.38;5031532;28;20206;-74
2023/04/25 08:17:06;;;;;;;7.90;2.40;;;10.20;99.90;;;-141.84;51.56;20004.88;5032901;28;20725;-72
2023/04/25 08:19:34;;;;;;;4.23;2.10;;;10.40;99.90;;;-141.84;50.34;20031.31;5035333;28;20289;-74
2023/04/25 08:22:03;;;;;;;5.50;2.20;;;10.50;99.90;;;-141.84;50.50;20037.41;5036622;28;20206;-71
2023/04/25 08:24:31;;;;;;;3.87;2.23;;;10.70;99.90;;;-141.84;49.63;20098.38;5038434;28;20217;-72
2023/04/25 08:27:00;;;;;;;4.93;2.13;;;11.00;99.90;;;-141.84;49.02;20094.31;5038438;28;20230;-73
2023/04/25 08:29:28;;;;;;;5.80;2.53;;;11.00;99.90;;;-141.84;48.72;20124.81;5035976;28;20582;-75
2023/04/25 08:31:56;;;;;;;4.83;2.33;;;11.10;99.90;;;-141.84;47.88;20173.59;5036747;28;20313;-56
2023/04/25 08:34:26;;;;;;;5.77;2.00;;;11.30;99.90;;;-141.84;48.98;20139.03;5034748;28;20206;-57
2023/04/25 08:36:54;;;;;;;5.03;2.33;;;11.20;99.90;;;-141.84;49.25;20159.34;5034856;28;20226;-54
2023/04/25 08:39:22;;;;;;;5.00;2.50;;;11.40;99.90;;;-141.84;48.04;20141.06;5034659;28;20678;-57
2023/04/25 08:41:52;;;;;;;7.17;2.60;;;11.40;99.90;;;-141.84;48.75;20122.78;5034893;28;20202;-57
2023/04/25 08:44:23;;;;;;;6.57;2.80;;;11.20;99.90;;;-141.84;48.87;20134.97;5034863;28;20209;-58
2023/04/25 08:46:53;;;;;;;6.37;2.50;;;11.20;99.90;;;-141.84;48.84;20179.69;5034695;28;20657;-55
2023/04/25 08:49:21;;;;;;;7.27;2.50;;;11.40;99.90;;;-141.84;47.23;20159.34;5034837;28;20229;-55
2023/04/25 08:51:57;;;;;;;4.27;2.23;;;11.40;99.90;;;-141.84;47.44;20159.34;5034803;28;20252;-60
2023/04/25 08:54:28;;;;;;;5.17;2.27;;;11.30;99.90;;;-141.84;46.27;20195.94;5034855;28;20321;-53
2023/04/25 08:57:05;;;;;;;6.67;2.30;;;11.40;99.90;;;-141.84;46.88;20187.81;5034520;28;20244;-57
2023/04/25 08:59:33;;;;;;;5.53;2.70;;;11.40;99.90;;;-141.84;47.17;20193.91;5033982;28;20202;-56
2023/04/25 09:02:04;;;;;;;5.27;2.43;;;11.40;99.90;;;-141.84;47.33;20187.81;5034614;28;20217;-57
2023/04/25 09:04:33;;;;;;;4.73;2.30;;;11.50;99.90;;;-141.84;46.74;20179.69;5034604;28;20557;-59
2023/04/25 09:07:02;;;;;;;7.17;3.03;;;11.50;99.90;;;-141.84;46.57;20193.91;5034471;28;20198;-58
2023/04/25 09:09:31;;;;;;;8.60;2.63;;;11.70;99.90;;;-141.84;47.50;20195.94;5034287;28;20646;-57
2023/04/25 09:12:01;;;;;;;7.07;3.10;;;11.60;99.90;;;-141.84;47.19;20165.44;5034552;28;20221;-56
2023/04/25 09:14:29;;;;;;;6.03;2.57;;;11.70;99.90;;;-141.84;46.62;20220.34;5034309;28;20198;-55
2023/04/25 09:17:07;;;;;;;8.97;3.07;;;11.70;99.90;;;-141.84;47.14;20224.41;5034024;28;20218;-56
2023/04/25 09:19:39;;;;;;;5.40;2.70;;;11.60;99.90;;;-141.84;46.21;20246.75;5034315;28;20190;-56
2023/04/25 09:22:10;;;;;;;6.37;2.40;;;11.70;99.90;;;-141.84;46.87;20204.06;5034314;28;20306;-54
2023/04/25 09:24:41;;;;;;;9.07;2.80;;;11.60;99.90;;;-141.84;46.83;20204.06;5034243;28;20202;-58
2023/04/25 09:27:11;;;;;;;5.27;2.73;;;11.70;99.90;;;-141.84;46.93;20210.16;5033167;28;20328;-54
2023/04/25 09:29:41;;;;;;;11.57;3.40;;;11.70;99.90;;;-141.84;47.31;20169.53;5033887;28;20526;-57
2023/04/25 09:32:18;;;;;;;7.33;2.83;;;11.60;99.90;;;-141.84;47.81;20175.63;5033806;28;20645;-57
2023/04/25 09:34:50;;;;;;;8.87;3.67;;;11.50;99.90;;;-141.84;48.55;20086.19;5034091;28;20603;-57
2023/04/25 09:37:21;;;;;;;9.57;3.40;;;11.20;99.90;;;-141.84;49.78;20035.38;5033581;28;20629;-58
2023/04/25 09:39:52;;;;;;;7.93;3.40;;;11.00;99.90;;;-141.84;50.46;20041.47;5033578;28;20197;-56
2023/04/25 09:42:24;;;;;;;8.60;3.33;;;10.90;99.90;;;-141.84;51.05;19992.69;5032018;28;20191;-56
2023/04/25 09:44:54;;;;;;;11.03;3.53;;;10.60;99.90;;;-141.84;51.97;19976.44;5025495;28;20300;-56
2023/04/25 09:47:26;;;;;;;11.70;3.60;;;10.40;99.90;;;-141.84;53.08;20004.88;5033454;28;20191;-56
2023/04/25 09:49:55;;;;;;;6.87;3.33;;;10.50;99.90;;;-141.84;52.42;20037.41;5033440;28;20708;-56
2023/04/25 09:52:26;;;;;;;12.27;3.07;;;10.60;99.90;;;-141.84;51.38;20078.06;5033630;28;20217;-55
2023/04/25 09:54:54;;;;;;;8.10;3.33;;;10.70;99.90;;;-141.84;51.24;20098.38;5033675;28;20193;-54
2023/04/25 09:57:24;;;;;;;6.80;2.93;;;11.00;99.90;;;-141.84;50.75;20147.16;5033609;28;20260;-56
2023/04/25 09:59:55;;;;;;;8.83;3.83;;;11.20;99.90;;;-141.84;48.95;20151.22;5033356;28;20189;-56
2023/04/25 10:02:25;;;;;;;8.97;3.37;;;11.20;99.90;;;-141.84;49.23;20120.75;5033254;28;20186;-58
2023/04/25 10:04:55;;;;;;;8.40;3.60;;;11.20;99.90;;;-141.84;50.95;20055.69;5033139;28;20759;-57
2023/04/25 10:07:30;;;;;;;8.17;4.30;;;11.00;99.90;;;-141.84;50.07;20084.16;5033154;28;20603;-55
2023/04/25 10:10:03;;;;;;;8.27;4.70;;;10.80;99.90;;;-141.84;50.57;20051.63;5033321;28;20190;-57
2023/04/25 10:12:33;;;;;;;8.80;4.67;;;10.80;99.90;;;-141.84;49.90;20059.75;5033023;28;20548;-56
2023/04/25 10:15:03;;;;;;;9.37;4.83;;;10.80;99.90;;;-141.84;49.96;20061.78;5033412;28;20273;-57
2023/04/25 10:17:34;;;;;;;13.97;5.10;;;10.70;99.90;;;-141.84;50.64;20069.94;5032958;28;20221;-58